createdAt,value
2023-03-24T00:00:39.387Z,6.10
2023-03-24T00:03:10.309Z,8.80
2023-03-24T00:06:00.654Z,4.80
2023-03-24T00:07:25.799Z,4.70
2023-03-24T00:09:25.600Z,4.80
2023-03-24T00:11:23.613Z,7.40
2023-03-24T00:17:30.559Z,5.80
2023-03-24T00:22:00.476Z,3.00
2023-03-24T00:24:50.435Z,7.00
2023-03-24T00:27:19.380Z,5.10
2023-03-24T00:29:09.094Z,4.70
2023-03-24T00:32:18.549Z,4.00
2023-03-24T00:34:17.732Z,5.40
2023-03-24T00:36:44.659Z,5.20
2023-03-24T00:40:06.198Z,4.50
2023-03-24T00:41:36.107Z,4.20
2023-03-24T00:43:54.813Z,5.40
2023-03-24T00:46:12.758Z,5.10
2023-03-24T00:50:45.369Z,3.90
2023-03-24T00:57:22.260Z,5.70
2023-03-24T01:00:41.433Z,5.60
2023-03-24T01:05:16.197Z,4.00
2023-03-24T01:06:46.207Z,4.90
2023-03-24T01:08:42.298Z,6.00
2023-03-24T01:10:11.341Z,4.00
2023-03-24T01:12:11.034Z,4.20
2023-03-24T01:14:46.566Z,5.30
2023-03-24T01:18:16.411Z,4.50
2023-03-24T01:19:45.247Z,5.80
2023-03-24T01:24:34.670Z,3.40
2023-03-24T01:30:40.416Z,3.90
2023-03-24T01:32:40.062Z,4.30
2023-03-24T01:34:10.987Z,3.70
2023-03-24T01:36:41.451Z,4.50
2023-03-24T01:39:44.114Z,3.10
2023-03-24T01:44:13.319Z,3.60
2023-03-24T01:47:11.101Z,6.30
2023-03-24T01:49:09.441Z,3.60
2023-03-24T01:59:23.211Z,4.60
2023-03-24T02:01:43.998Z,3.20
2023-03-24T02:04:42.462Z,4.70
2023-03-24T02:06:42.310Z,2.80
2023-03-24T02:09:33.057Z,3.50
2023-03-24T02:11:53.992Z,3.10
2023-03-24T02:14:10.431Z,3.80
2023-03-24T02:15:41.205Z,2.50
2023-03-24T02:17:10.328Z,3.90
2023-03-24T02:19:10.353Z,2.90
2023-03-24T02:22:58.279Z,2.60
2023-03-24T02:25:48.216Z,4.00
2023-03-24T02:27:15.387Z,2.50
2023-03-24T02:28:45.517Z,4.10
2023-03-24T02:31:14.936Z,3.20
2023-03-24T02:35:04.651Z,3.60
2023-03-24T02:37:41.388Z,4.20
2023-03-24T02:39:10.272Z,5.00
2023-03-24T02:41:40.357Z,3.30
2023-03-24T02:43:44.384Z,2.80
2023-03-24T02:47:32.861Z,2.60
2023-03-24T02:49:10.652Z,2.90
2023-03-24T02:51:16.579Z,4.00
2023-03-24T02:56:25.129Z,2.90
2023-03-24T03:00:19.535Z,3.80
2023-03-24T03:01:50.674Z,3.20
2023-03-24T03:03:19.095Z,4.10
2023-03-24T03:04:46.647Z,3.60
2023-03-24T03:10:13.268Z,2.80
2023-03-24T03:12:14.884Z,2.90
2023-03-24T03:17:16.163Z,4.80
2023-03-24T03:19:44.784Z,4.00
2023-03-24T03:22:04.453Z,3.40
2023-03-24T03:24:25.647Z,3.50
2023-03-24T03:25:52.738Z,3.60
2023-03-24T03:27:42.037Z,4.10
2023-03-24T03:35:57.793Z,5.00
2023-03-24T03:41:44.756Z,3.90
2023-03-24T03:45:16.291Z,4.40
2023-03-24T03:47:17.090Z,3.20
2023-03-24T03:52:03.536Z,3.40
2023-03-24T03:54:24.226Z,3.90
2023-03-24T03:57:20.525Z,3.90
2023-03-24T03:58:51.840Z,3.00
2023-03-24T04:01:19.091Z,4.30
2023-03-24T04:03:28.172Z,4.90
2023-03-24T04:07:14.643Z,3.60
2023-03-24T04:09:25.067Z,3.80
2023-03-24T04:12:49.091Z,3.20
2023-03-24T04:16:40.217Z,4.10
2023-03-24T04:18:09.673Z,2.70
2023-03-24T04:19:40.602Z,3.10
2023-03-24T04:24:20.418Z,2.10
2023-03-24T04:27:31.732Z,2.40
2023-03-24T04:31:15.864Z,1.60
2023-03-24T04:34:58.222Z,1.30
2023-03-24T04:36:50.844Z,2.70
2023-03-24T04:38:21.108Z,2.90
2023-03-24T04:41:17.844Z,1.50
2023-03-24T04:43:38.976Z,4.10
2023-03-24T04:45:10.467Z,1.70
2023-03-24T04:54:46.067Z,2.80
2023-03-24T04:59:25.973Z,1.50
2023-03-24T05:00:23.990Z,4.00
2023-03-24T05:01:23.302Z,4.10
2023-03-24T05:02:23.305Z,2.20
2023-03-24T05:05:05.889Z,5.60
2023-03-24T05:07:03.892Z,4.80
2023-03-24T05:11:16.335Z,2.70
2023-03-24T05:14:23.012Z,3.00
2023-03-24T05:16:27.143Z,4.30
2023-03-24T05:21:34.598Z,5.20
2023-03-24T05:24:10.739Z,6.30
2023-03-24T05:26:33.274Z,5.00
2023-03-24T05:29:30.958Z,4.30
2023-03-24T05:32:58.119Z,4.60
2023-03-24T05:35:17.140Z,6.50
2023-03-24T05:37:35.949Z,3.70
2023-03-24T05:41:43.016Z,6.60
2023-03-24T05:46:44.132Z,5.70
2023-03-24T05:53:57.934Z,7.10
2023-03-24T05:55:59.366Z,7.00
2023-03-24T05:58:20.301Z,8.40
2023-03-24T06:00:46.432Z,10.00
2023-03-24T06:02:17.701Z,7.10
2023-03-24T06:05:16.428Z,5.90
2023-03-24T06:07:35.529Z,10.20
2023-03-24T06:13:16.087Z,8.30
2023-03-24T06:16:14.941Z,9.40
2023-03-24T06:18:34.684Z,8.20
2023-03-24T06:22:08.495Z,8.00
2023-03-24T06:25:54.358Z,11.80
2023-03-24T06:28:31.276Z,10.90
2023-03-24T06:33:20.214Z,11.60
2023-03-24T06:40:08.449Z,17.70
2023-03-24T06:42:06.372Z,16.20
2023-03-24T06:45:15.024Z,14.60
2023-03-24T06:48:16.166Z,11.40
2023-03-24T06:50:03.042Z,19.70
2023-03-24T06:51:51.405Z,18.20
2023-03-24T06:53:20.325Z,14.40
2023-03-24T06:55:22.336Z,14.50
2023-03-24T07:00:24.223Z,13.00
2023-03-24T07:05:24.641Z,16.40
2023-03-24T07:09:21.763Z,14.60
2023-03-24T07:15:20.925Z,15.00
2023-03-24T07:17:10.296Z,18.60
2023-03-24T07:19:09.244Z,12.10
2023-03-24T07:21:33.646Z,11.40
2023-03-24T07:23:01.716Z,19.40
2023-03-24T07:24:31.963Z,11.40
2023-03-24T07:27:16.084Z,12.60
2023-03-24T07:31:07.163Z,15.70
2023-03-24T07:34:07.369Z,14.80
2023-03-24T07:37:05.983Z,14.50
2023-03-24T07:39:11.332Z,12.60
2023-03-24T07:41:14.301Z,9.00
2023-03-24T07:42:39.294Z,9.90
2023-03-24T07:47:05.198Z,18.30
2023-03-24T07:50:56.548Z,12.50
2023-03-24T07:53:30.325Z,15.30
2023-03-24T07:55:30.492Z,9.80
2023-03-24T07:57:04.494Z,14.90
2023-03-24T07:58:35.523Z,14.80
2023-03-24T08:03:41.114Z,11.50
2023-03-24T08:05:41.348Z,7.90
2023-03-24T08:14:07.650Z,16.70
2023-03-24T08:22:08.192Z,10.90
2023-03-24T08:23:56.847Z,11.10
2023-03-24T08:26:53.598Z,9.50
2023-03-24T08:28:56.655Z,12.80
2023-03-24T08:30:28.702Z,8.20
2023-03-24T08:38:22.698Z,15.50
2023-03-24T08:40:29.210Z,11.60
2023-03-24T08:43:09.065Z,10.80
2023-03-24T08:48:08.511Z,10.20
2023-03-24T08:52:56.843Z,10.80
2023-03-24T08:54:24.116Z,10.40
2023-03-24T08:56:24.073Z,9.40
2023-03-24T08:57:54.706Z,12.60
2023-03-24T09:00:26.266Z,9.90
2023-03-24T09:04:03.498Z,8.00
2023-03-24T09:07:59.178Z,12.60
2023-03-24T09:10:02.026Z,9.30
2023-03-24T09:11:31.971Z,14.20
2023-03-24T09:13:31.165Z,13.50
2023-03-24T09:15:28.713Z,12.30
2023-03-24T09:20:01.488Z,8.10
2023-03-24T09:21:24.987Z,10.70
2023-03-24T09:26:54.681Z,10.70
2023-03-24T09:30:11.401Z,8.50
2023-03-24T09:33:17.636Z,12.10
2023-03-24T09:35:52.009Z,7.90
2023-03-24T09:45:35.496Z,10.60
2023-03-24T09:47:08.169Z,10.20
2023-03-24T09:49:05.807Z,8.80
2023-03-24T09:50:42.003Z,10.20
2023-03-24T09:52:43.164Z,8.70
2023-03-24T09:54:21.401Z,10.10
2023-03-24T09:57:15.629Z,13.70
2023-03-24T10:02:10.671Z,6.90
2023-03-24T10:03:37.667Z,11.90
2023-03-24T10:05:26.817Z,8.50
2023-03-24T10:06:57.563Z,6.50
2023-03-24T10:09:16.699Z,9.60
2023-03-24T10:17:56.830Z,12.50
2023-03-24T10:19:43.988Z,7.60
2023-03-24T10:23:24.505Z,8.40
2023-03-24T10:24:55.885Z,6.80
2023-03-24T10:26:57.044Z,9.90
2023-03-24T10:27:56.977Z,8.20
2023-03-24T10:29:17.993Z,8.80
2023-03-24T10:34:10.984Z,9.10
2023-03-24T10:36:41.462Z,10.80
2023-03-24T10:39:26.108Z,9.50
2023-03-24T10:42:02.087Z,11.70
2023-03-24T10:46:31.541Z,8.50
2023-03-24T10:48:21.172Z,8.80
2023-03-24T10:50:46.291Z,7.70
2023-03-24T10:52:35.468Z,7.40
2023-03-24T10:54:33.776Z,8.30
2023-03-24T10:57:41.352Z,9.20
2023-03-24T11:02:07.249Z,7.40
2023-03-24T11:04:57.577Z,6.10
2023-03-24T11:06:25.678Z,7.50
2023-03-24T11:16:37.892Z,5.50
2023-03-24T11:18:11.199Z,5.70
2023-03-24T11:21:39.730Z,6.20
2023-03-24T11:23:08.574Z,4.50
2023-03-24T11:26:17.937Z,5.00
2023-03-24T11:29:47.444Z,4.30
2023-03-24T11:33:17.793Z,5.10
2023-03-24T11:34:46.974Z,4.80
2023-03-24T11:39:43.251Z,4.30
2023-03-24T11:41:59.016Z,4.40
2023-03-24T11:44:50.490Z,3.90
2023-03-24T11:47:39.399Z,6.40
2023-03-24T11:51:14.331Z,5.30
2023-03-24T11:53:02.301Z,4.00
2023-03-24T11:56:50.770Z,5.40
2023-03-24T11:59:29.889Z,4.30
2023-03-24T12:02:20.020Z,4.50
2023-03-24T12:04:54.577Z,5.30
2023-03-24T12:09:13.894Z,4.90
2023-03-24T12:13:37.951Z,5.60
2023-03-24T12:16:31.990Z,6.50
2023-03-24T12:21:00.953Z,8.10
2023-03-24T12:24:49.272Z,6.70
2023-03-24T12:36:25.214Z,7.10
2023-03-24T12:45:24.071Z,5.40
2023-03-24T12:49:51.310Z,6.70
2023-03-24T12:51:49.736Z,6.20
2023-03-24T12:53:17.179Z,11.20
2023-03-24T12:55:15.589Z,4.30
2023-03-24T12:56:44.331Z,6.80
2023-03-24T12:58:15.921Z,5.20
2023-03-24T12:59:44.045Z,4.40
2023-03-24T13:01:14.004Z,7.30
2023-03-24T13:04:53.660Z,4.40
2023-03-24T13:06:24.660Z,3.10
2023-03-24T13:09:00.321Z,4.80
2023-03-24T13:10:27.540Z,7.10
2023-03-24T13:11:58.400Z,6.40
2023-03-24T13:19:34.781Z,6.10
2023-03-24T13:21:05.482Z,8.40
2023-03-24T13:25:50.710Z,4.70
2023-03-24T13:27:51.165Z,4.10
2023-03-24T13:31:55.882Z,4.30
2023-03-24T13:34:43.544Z,4.20
2023-03-24T13:38:29.694Z,2.70
2023-03-24T13:41:00.492Z,2.90
2023-03-24T13:43:59.442Z,1.50
2023-03-24T13:47:24.022Z,3.20
2023-03-24T13:48:53.016Z,5.90
2023-03-24T13:51:51.800Z,3.20
2023-03-24T13:56:12.902Z,6.10
2023-03-24T14:02:50.476Z,2.90
2023-03-24T14:05:37.284Z,1.80
2023-03-24T14:08:55.905Z,3.70
2023-03-24T14:11:03.545Z,2.80
2023-03-24T14:13:33.478Z,2.10
2023-03-24T14:15:34.215Z,3.90
2023-03-24T14:17:22.016Z,3.90
2023-03-24T14:23:00.166Z,4.20
2023-03-24T14:25:49.110Z,5.00
2023-03-24T14:29:31.273Z,4.60
2023-03-24T14:31:19.949Z,4.10
2023-03-24T14:36:59.529Z,3.30
2023-03-24T14:43:32.670Z,5.30
2023-03-24T14:46:42.378Z,3.60
2023-03-24T14:49:02.387Z,7.20
2023-03-24T14:54:04.021Z,7.30
2023-03-24T14:57:23.315Z,7.60
2023-03-24T14:59:14.329Z,9.80
2023-03-24T15:09:45.529Z,4.50
2023-03-24T15:12:34.099Z,4.40
2023-03-24T15:15:41.883Z,5.00
2023-03-24T15:21:39.876Z,5.60
2023-03-24T15:23:55.785Z,4.50
2023-03-24T15:26:34.300Z,5.40
2023-03-24T15:29:38.206Z,3.80
2023-03-24T15:32:49.348Z,4.70
2023-03-24T15:35:43.592Z,5.20
2023-03-24T15:40:14.766Z,2.80
2023-03-24T15:44:44.406Z,3.10
2023-03-24T15:46:12.972Z,3.30
2023-03-24T15:48:35.197Z,1.50
2023-03-24T15:51:22.597Z,1.90
2023-03-24T15:56:40.842Z,2.10
2023-03-24T16:03:04.729Z,2.30
2023-03-24T16:05:53.550Z,2.10
2023-03-24T16:07:43.256Z,2.60
2023-03-24T16:10:12.926Z,4.90
2023-03-24T16:12:05.840Z,3.30
2023-03-24T16:14:02.814Z,2.20
2023-03-24T16:16:41.326Z,3.60
2023-03-24T16:18:30.031Z,3.10
2023-03-24T16:23:45.534Z,3.60
2023-03-24T16:26:08.034Z,2.00
2023-03-24T16:28:26.379Z,2.80
2023-03-24T16:30:13.507Z,2.60
2023-03-24T16:34:34.547Z,4.00
2023-03-24T16:36:30.531Z,2.90
2023-03-24T16:41:58.869Z,4.60
2023-03-24T16:44:17.755Z,3.20
2023-03-24T16:50:48.186Z,3.30
2023-03-24T16:55:57.516Z,3.60
2023-03-24T17:01:55.680Z,3.50
2023-03-24T17:07:05.509Z,3.90
2023-03-24T17:09:13.831Z,2.00
2023-03-24T17:09:52.800Z,2.90
2023-03-24T17:10:52.814Z,3.30
2023-03-24T17:11:52.804Z,2.90
2023-03-24T17:15:24.447Z,4.40
2023-03-24T17:18:52.366Z,1.80
2023-03-24T17:23:12.118Z,2.80
2023-03-24T17:24:41.866Z,5.00
2023-03-24T17:26:40.735Z,2.20
2023-03-24T17:28:56.731Z,2.80
2023-03-24T17:38:09.462Z,3.30
2023-03-24T17:39:40.601Z,3.40
2023-03-24T17:44:41.105Z,4.00
2023-03-24T17:47:33.928Z,3.80
2023-03-24T17:50:52.752Z,3.20
2023-03-24T17:56:59.602Z,5.00
2023-03-24T17:58:29.558Z,3.60
2023-03-24T18:03:08.730Z,4.10
2023-03-24T18:04:44.217Z,3.60
2023-03-24T18:07:06.206Z,6.40
2023-03-24T18:12:30.856Z,3.80
2023-03-24T18:14:57.826Z,3.70
2023-03-24T18:17:42.626Z,6.00
2023-03-24T18:19:11.515Z,10.10
2023-03-24T18:20:40.475Z,6.80
2023-03-24T18:22:17.359Z,5.80
2023-03-24T18:24:46.467Z,10.30
2023-03-24T18:26:14.311Z,7.60
2023-03-24T18:28:38.424Z,4.60
2023-03-24T18:30:10.372Z,5.40
2023-03-24T18:31:42.684Z,4.00
2023-03-24T18:33:13.517Z,3.00
2023-03-24T18:34:44.529Z,3.30
2023-03-24T18:42:52.242Z,4.90
2023-03-24T18:50:30.151Z,5.20
2023-03-24T18:57:32.801Z,3.30
2023-03-24T18:59:33.701Z,5.90
2023-03-24T19:02:01.555Z,3.90
2023-03-24T19:03:28.905Z,4.00
2023-03-24T19:05:56.923Z,6.40
2023-03-24T19:07:26.830Z,6.00
2023-03-24T19:09:27.385Z,7.30
2023-03-24T19:16:14.999Z,5.50
2023-03-24T19:18:31.176Z,6.40
2023-03-24T19:26:20.138Z,5.60
2023-03-24T19:28:18.892Z,6.70
2023-03-24T19:30:16.327Z,8.20
2023-03-24T19:41:25.410Z,5.60
2023-03-24T19:49:31.828Z,7.20
2023-03-24T19:51:31.057Z,4.30
2023-03-24T19:54:42.726Z,5.60
2023-03-24T19:58:02.489Z,3.60
2023-03-24T20:00:26.304Z,4.60
2023-03-24T20:07:41.292Z,3.90
2023-03-24T20:16:44.788Z,6.50
2023-03-24T20:19:34.638Z,6.40
2023-03-24T20:25:51.988Z,4.10
2023-03-24T20:30:15.570Z,7.20
2023-03-24T20:34:21.736Z,4.80
2023-03-24T20:38:45.889Z,6.50
2023-03-24T20:40:14.763Z,5.00
2023-03-24T20:42:05.247Z,3.70
2023-03-24T20:46:22.172Z,5.10
2023-03-24T20:47:50.158Z,4.10
2023-03-24T20:50:19.757Z,6.90
2023-03-24T20:51:46.697Z,3.40
2023-03-24T20:53:15.586Z,5.70
2023-03-24T20:54:44.477Z,4.30
2023-03-24T20:56:14.399Z,5.30
2023-03-24T20:57:44.404Z,3.10
2023-03-24T21:02:59.342Z,5.50
2023-03-24T21:04:28.957Z,4.50
2023-03-24T21:09:16.755Z,6.60
2023-03-24T21:16:52.146Z,3.90
2023-03-24T21:18:20.143Z,7.70
2023-03-24T21:20:09.810Z,3.80
2023-03-24T21:21:39.755Z,8.50
2023-03-24T21:23:09.657Z,6.80
2023-03-24T21:26:04.413Z,6.70
2023-03-24T21:27:33.314Z,3.60
2023-03-24T21:30:01.128Z,4.20
2023-03-24T21:32:58.016Z,7.10
2023-03-24T21:37:35.765Z,7.30
2023-03-24T21:41:01.934Z,7.70
2023-03-24T21:43:23.787Z,5.20
2023-03-24T21:47:54.425Z,5.20
2023-03-24T21:53:30.523Z,4.80
2023-03-24T21:56:45.115Z,5.10
2023-03-24T21:59:13.692Z,3.20
2023-03-24T22:02:10.647Z,4.20
2023-03-24T22:04:39.788Z,4.10
2023-03-24T22:06:08.720Z,6.30
2023-03-24T22:09:09.258Z,4.00
2023-03-24T22:12:11.937Z,9.20
2023-03-24T22:13:42.749Z,6.60
2023-03-24T22:15:40.331Z,8.80
2023-03-24T22:18:09.653Z,7.20
2023-03-24T22:20:36.133Z,4.90
2023-03-24T22:22:05.054Z,6.10
2023-03-24T22:26:29.884Z,4.00
2023-03-24T22:29:57.416Z,5.40
2023-03-24T22:34:11.109Z,3.50
2023-03-24T22:35:40.038Z,5.90
2023-03-24T22:37:38.036Z,2.70
2023-03-24T22:45:18.418Z,2.70
2023-03-24T22:46:55.441Z,2.90
2023-03-24T22:57:09.769Z,4.10
2023-03-24T23:01:29.710Z,3.50
2023-03-24T23:09:05.650Z,3.10
2023-03-24T23:11:36.474Z,2.90
2023-03-24T23:15:01.945Z,21.60
2023-03-24T23:20:08.284Z,1.80
2023-03-24T23:21:37.131Z,4.90
2023-03-24T23:24:14.772Z,4.60
2023-03-24T23:25:43.628Z,5.70
2023-03-24T23:27:45.469Z,4.30
2023-03-24T23:30:20.562Z,2.70
2023-03-24T23:34:11.381Z,3.10
2023-03-24T23:35:39.885Z,3.70
2023-03-24T23:37:34.282Z,2.30
2023-03-24T23:42:03.889Z,3.30
2023-03-24T23:44:34.545Z,4.60
2023-03-24T23:46:21.871Z,3.40
2023-03-24T23:50:39.520Z,5.40
2023-03-24T23:57:48.558Z,14.70
2023-03-24T23:59:37.375Z,26.40
